createdAt,value
2023-03-30T00:01:23.026Z,4.85
2023-03-30T00:03:49.859Z,3.17
2023-03-30T00:06:23.136Z,7.25
2023-03-30T00:08:58.316Z,5.27
2023-03-30T00:11:26.218Z,3.30
2023-03-30T00:13:53.060Z,2.97
2023-03-30T00:16:21.739Z,5.32
2023-03-30T00:18:48.296Z,4.10
2023-03-30T00:21:18.080Z,3.47
2023-03-30T00:23:47.061Z,3.63
2023-03-30T00:26:14.711Z,3.72
2023-03-30T00:28:41.489Z,4.10
2023-03-30T00:31:08.155Z,8.10
2023-03-30T00:33:44.752Z,3.37
2023-03-30T00:36:12.840Z,5.40
2023-03-30T00:38:40.238Z,3.80
2023-03-30T00:41:07.256Z,3.75
2023-03-30T00:43:34.067Z,3.42
2023-03-30T00:46:01.101Z,5.20
2023-03-30T00:48:31.820Z,4.00
2023-03-30T00:51:09.636Z,3.42
2023-03-30T00:53:42.154Z,3.40
2023-03-30T00:56:12.759Z,3.47
2023-03-30T00:58:40.973Z,2.60
2023-03-30T01:01:10.805Z,3.90
2023-03-30T01:03:47.872Z,3.22
2023-03-30T01:06:17.824Z,2.92
2023-03-30T01:08:45.199Z,2.20
2023-03-30T01:11:11.901Z,3.10
2023-03-30T01:13:45.569Z,6.20
2023-03-30T01:16:27.245Z,2.88
2023-03-30T01:19:18.828Z,5.38
2023-03-30T01:22:13.327Z,3.67
2023-03-30T01:25:10.666Z,3.70
2023-03-30T01:28:01.767Z,4.38
2023-03-30T01:30:53.277Z,3.03
2023-03-30T01:33:44.499Z,2.53
2023-03-30T01:36:37.823Z,2.00
2023-03-30T01:39:31.099Z,4.30
2023-03-30T01:42:17.527Z,2.53
2023-03-30T01:45:04.387Z,3.05
2023-03-30T01:47:40.443Z,2.60
2023-03-30T01:50:15.471Z,2.90
2023-03-30T01:52:56.590Z,4.93
2023-03-30T01:55:33.655Z,1.83
2023-03-30T01:58:10.155Z,2.72
2023-03-30T02:00:41.180Z,2.85
2023-03-30T02:03:13.449Z,4.18
2023-03-30T02:05:42.850Z,3.17
2023-03-30T02:08:13.769Z,4.60
2023-03-30T02:10:42.551Z,8.50
2023-03-30T02:13:09.555Z,1.48
2023-03-30T02:15:40.789Z,3.20
2023-03-30T02:18:07.744Z,4.63
2023-03-30T02:20:35.626Z,3.75
2023-03-30T02:23:03.651Z,3.55
2023-03-30T02:25:30.068Z,3.42
2023-03-30T02:27:57.063Z,3.33
2023-03-30T02:30:23.727Z,3.33
2023-03-30T02:32:56.271Z,3.92
2023-03-30T02:35:34.951Z,1.92
2023-03-30T02:38:34.769Z,2.90
2023-03-30T02:41:16.287Z,2.50
2023-03-30T02:43:50.436Z,2.10
2023-03-30T02:46:32.849Z,2.78
2023-03-30T02:49:19.476Z,3.10
2023-03-30T02:51:50.571Z,3.63
2023-03-30T02:54:25.515Z,2.65
2023-03-30T02:56:58.105Z,4.77
2023-03-30T02:59:33.427Z,4.63
2023-03-30T03:02:06.989Z,3.45
2023-03-30T03:04:34.956Z,2.22
2023-03-30T03:07:02.587Z,2.13
2023-03-30T03:09:29.477Z,3.90
2023-03-30T03:11:56.089Z,2.80
2023-03-30T03:14:26.576Z,3.80
2023-03-30T03:16:54.629Z,3.30
2023-03-30T03:19:21.438Z,2.83
2023-03-30T03:21:47.940Z,1.60
2023-03-30T03:24:17.326Z,5.07
2023-03-30T03:26:43.796Z,4.30
2023-03-30T03:29:10.341Z,4.28
2023-03-30T03:31:36.952Z,3.83
2023-03-30T03:34:03.882Z,2.73
2023-03-30T03:36:30.684Z,1.35
2023-03-30T03:38:57.060Z,1.27
2023-03-30T03:41:23.556Z,3.28
2023-03-30T03:43:49.979Z,4.15
2023-03-30T03:46:16.661Z,3.10
2023-03-30T03:48:43.119Z,4.88
2023-03-30T03:51:11.126Z,2.25
2023-03-30T03:53:37.553Z,2.17
2023-03-30T03:56:04.164Z,3.78
2023-03-30T03:58:30.660Z,4.27
2023-03-30T04:01:01.743Z,1.90
2023-03-30T04:03:28.672Z,4.85
2023-03-30T04:06:00.084Z,7.10
2023-03-30T04:08:28.453Z,2.58
2023-03-30T04:10:55.035Z,4.33
2023-03-30T04:13:21.591Z,1.40
2023-03-30T04:15:48.000Z,3.17
2023-03-30T04:18:15.557Z,2.95
2023-03-30T04:20:42.046Z,4.72
2023-03-30T04:23:09.737Z,4.53
2023-03-30T04:25:36.330Z,2.72
2023-03-30T04:28:04.956Z,1.23
2023-03-30T04:30:31.662Z,2.78
2023-03-30T04:33:09.700Z,4.40
2023-03-30T04:35:36.225Z,4.90
2023-03-30T04:38:02.758Z,2.63
2023-03-30T04:40:30.084Z,5.30
2023-03-30T04:43:02.808Z,1.95
2023-03-30T04:45:30.783Z,3.50
2023-03-30T04:47:58.126Z,3.20
2023-03-30T04:50:24.695Z,4.22
2023-03-30T04:52:51.203Z,3.20
2023-03-30T04:55:17.993Z,5.15
2023-03-30T04:57:44.382Z,4.72
2023-03-30T05:00:12.162Z,1.83
2023-03-30T05:02:38.637Z,3.33
2023-03-30T05:05:05.324Z,4.53
2023-03-30T05:07:31.723Z,6.47
2023-03-30T05:09:58.129Z,4.88
2023-03-30T05:12:24.680Z,4.83
2023-03-30T05:14:51.124Z,2.70
2023-03-30T05:17:17.620Z,4.03
2023-03-30T05:19:44.260Z,4.78
2023-03-30T05:22:10.638Z,6.28
2023-03-30T05:24:37.116Z,3.67
2023-03-30T05:27:05.022Z,7.63
2023-03-30T05:29:31.917Z,5.80
2023-03-30T05:31:58.377Z,7.25
2023-03-30T05:34:24.863Z,6.55
2023-03-30T05:36:51.277Z,4.23
2023-03-30T05:39:17.990Z,4.43
2023-03-30T05:41:44.388Z,6.18
2023-03-30T05:44:11.193Z,6.35
2023-03-30T05:46:37.769Z,5.60
2023-03-30T05:49:04.238Z,4.83
2023-03-30T05:51:30.616Z,5.53
2023-03-30T05:53:57.100Z,5.78
2023-03-30T05:56:25.027Z,3.65
2023-03-30T05:58:51.685Z,3.42
2023-03-30T06:01:18.115Z,5.43
2023-03-30T06:03:44.704Z,9.27
2023-03-30T06:06:12.162Z,5.45
2023-03-30T06:08:38.773Z,4.90
2023-03-30T06:11:06.088Z,5.03
2023-03-30T06:13:33.394Z,9.17
2023-03-30T06:16:02.871Z,5.03
2023-03-30T06:18:29.942Z,5.47
2023-03-30T06:20:57.352Z,9.68
2023-03-30T06:23:23.917Z,5.53
2023-03-30T06:25:53.162Z,4.90
2023-03-30T06:28:20.403Z,5.85
2023-03-30T06:30:49.090Z,6.70
2023-03-30T06:33:16.628Z,4.63
2023-03-30T06:35:51.120Z,10.25
2023-03-30T06:38:19.205Z,9.13
2023-03-30T06:40:46.014Z,8.38
2023-03-30T06:43:18.412Z,8.70
2023-03-30T06:45:52.177Z,8.77
2023-03-30T06:48:19.994Z,6.57
2023-03-30T06:50:47.639Z,7.23
2023-03-30T06:53:14.132Z,10.73
2023-03-30T06:55:42.185Z,6.85
2023-03-30T06:58:09.148Z,5.88
2023-03-30T07:00:35.910Z,11.60
2023-03-30T07:03:02.358Z,9.57
2023-03-30T07:05:28.797Z,8.77
2023-03-30T07:07:56.888Z,9.65
2023-03-30T07:10:23.499Z,9.20
2023-03-30T07:12:49.918Z,10.13
2023-03-30T07:15:16.692Z,10.90
2023-03-30T07:17:43.986Z,10.60
2023-03-30T07:20:15.926Z,13.13
2023-03-30T07:22:42.950Z,10.75
2023-03-30T07:25:09.980Z,7.47
2023-03-30T07:27:37.927Z,10.27
2023-03-30T07:30:17.856Z,8.98
2023-03-30T07:32:49.174Z,11.88
2023-03-30T07:35:16.751Z,9.75
2023-03-30T07:37:43.208Z,6.68
2023-03-30T07:40:11.671Z,10.97
2023-03-30T07:42:38.552Z,7.97
2023-03-30T07:45:05.941Z,9.38
2023-03-30T07:47:32.511Z,9.55
2023-03-30T07:49:59.008Z,13.20
2023-03-30T07:52:25.897Z,4.57
2023-03-30T07:54:54.580Z,12.20
2023-03-30T07:57:22.113Z,9.80
2023-03-30T07:59:48.781Z,8.55
2023-03-30T08:02:15.602Z,8.27
2023-03-30T08:04:43.812Z,11.00
2023-03-30T08:07:11.576Z,8.45
2023-03-30T08:09:38.076Z,11.35
2023-03-30T08:12:04.783Z,8.77
2023-03-30T08:14:31.385Z,8.27
2023-03-30T08:16:57.809Z,4.97
2023-03-30T08:19:25.070Z,6.82
2023-03-30T08:21:51.470Z,9.85
2023-03-30T08:24:18.314Z,12.80
2023-03-30T08:26:44.774Z,11.80
2023-03-30T08:29:12.888Z,13.70
2023-03-30T08:31:39.353Z,10.63
2023-03-30T08:34:07.205Z,12.65
2023-03-30T08:36:33.773Z,13.13
2023-03-30T08:39:00.649Z,10.55
2023-03-30T08:41:30.137Z,15.03
2023-03-30T08:44:28.729Z,7.15
2023-03-30T08:46:55.652Z,12.00
2023-03-30T08:49:22.368Z,15.15
2023-03-30T08:51:53.492Z,13.68
2023-03-30T08:54:22.673Z,13.83
2023-03-30T08:56:58.005Z,10.50
2023-03-30T08:59:40.906Z,9.27
2023-03-30T09:02:19.163Z,9.05
2023-03-30T09:05:04.654Z,12.73
2023-03-30T09:07:43.511Z,10.63
2023-03-30T09:10:14.601Z,11.00
2023-03-30T09:12:48.020Z,9.07
2023-03-30T09:15:22.723Z,9.05
2023-03-30T09:17:55.936Z,10.57
2023-03-30T09:20:27.687Z,11.57
2023-03-30T09:22:56.677Z,13.13
2023-03-30T09:25:42.334Z,8.30
2023-03-30T09:28:17.291Z,10.00
2023-03-30T09:30:48.372Z,14.68
2023-03-30T09:33:33.457Z,11.50
2023-03-30T09:36:06.856Z,13.27
2023-03-30T09:38:33.559Z,11.73
2023-03-30T09:41:17.828Z,8.55
2023-03-30T09:43:46.546Z,11.77
2023-03-30T09:46:14.860Z,17.17
2023-03-30T09:48:47.435Z,11.73
2023-03-30T09:51:18.098Z,14.05
2023-03-30T09:53:46.644Z,16.17
2023-03-30T09:56:26.375Z,11.63
2023-03-30T09:58:52.791Z,13.37
2023-03-30T10:01:20.617Z,14.30
2023-03-30T10:04:07.630Z,12.90
2023-03-30T10:06:44.421Z,11.35
2023-03-30T10:09:12.919Z,16.10
2023-03-30T10:11:49.320Z,16.90
2023-03-30T10:14:33.747Z,11.07
2023-03-30T10:17:01.633Z,17.95
2023-03-30T10:19:29.052Z,17.48
2023-03-30T10:21:58.747Z,8.32
2023-03-30T10:24:28.170Z,20.13
2023-03-30T10:27:03.491Z,16.58
2023-03-30T10:29:31.087Z,16.92
2023-03-30T10:32:14.490Z,15.98
2023-03-30T10:34:48.650Z,13.65
2023-03-30T10:37:34.190Z,10.63
2023-03-30T10:40:05.552Z,10.48
2023-03-30T10:42:33.241Z,15.40
2023-03-30T10:45:02.581Z,15.93
2023-03-30T10:47:49.794Z,12.60
2023-03-30T10:50:35.980Z,12.00
2023-03-30T10:53:34.975Z,13.88
2023-03-30T10:56:27.623Z,15.68
2023-03-30T10:59:06.230Z,15.90
2023-03-30T11:01:58.998Z,12.35
2023-03-30T11:04:31.846Z,11.80
2023-03-30T11:07:00.658Z,14.15
2023-03-30T11:09:34.500Z,18.90
2023-03-30T11:12:12.634Z,19.33
2023-03-30T11:14:47.854Z,16.50
2023-03-30T11:17:29.042Z,12.80
2023-03-30T11:19:57.799Z,15.50
2023-03-30T11:22:35.295Z,16.05
2023-03-30T11:25:07.287Z,13.00
2023-03-30T11:27:39.751Z,12.70
2023-03-30T11:30:20.528Z,9.97
2023-03-30T11:32:57.004Z,14.32
2023-03-30T11:35:43.575Z,7.60
2023-03-30T11:38:33.474Z,11.68
2023-03-30T11:41:13.436Z,24.50
2023-03-30T11:43:40.043Z,13.77
2023-03-30T11:46:54.923Z,12.50
2023-03-30T11:50:00.522Z,11.38
2023-03-30T11:53:04.506Z,14.00
2023-03-30T11:55:49.293Z,15.45
2023-03-30T11:58:32.013Z,11.20
2023-03-30T12:01:11.324Z,18.35
2023-03-30T12:03:49.912Z,9.30
2023-03-30T12:06:39.839Z,13.60
2023-03-30T12:09:45.320Z,10.48
2023-03-30T12:12:18.401Z,15.23
2023-03-30T12:14:57.975Z,10.30
2023-03-30T12:17:41.086Z,14.45
2023-03-30T12:20:07.714Z,12.80
2023-03-30T12:22:46.428Z,10.18
2023-03-30T12:25:42.763Z,16.93
2023-03-30T12:28:09.103Z,12.43
2023-03-30T12:30:53.579Z,17.45
2023-03-30T12:33:28.187Z,13.15
2023-03-30T12:36:00.677Z,12.18
2023-03-30T12:38:38.195Z,15.20
2023-03-30T12:41:14.607Z,15.10
2023-03-30T12:44:08.982Z,15.65
2023-03-30T12:46:44.027Z,13.88
2023-03-30T12:49:23.200Z,11.88
2023-03-30T12:52:09.722Z,15.27
2023-03-30T12:54:39.177Z,14.98
2023-03-30T12:57:19.941Z,7.57
2023-03-30T13:00:00.661Z,13.80
2023-03-30T13:02:46.911Z,11.95
2023-03-30T13:05:35.072Z,8.53
2023-03-30T13:08:05.028Z,11.93
2023-03-30T13:10:31.648Z,15.38
2023-03-30T13:13:00.268Z,15.77
2023-03-30T13:15:29.464Z,17.48
2023-03-30T13:17:56.044Z,18.93
2023-03-30T13:20:33.864Z,14.70
2023-03-30T13:23:06.734Z,12.00
2023-03-30T13:25:45.563Z,13.43
2023-03-30T13:28:37.250Z,13.27
2023-03-30T13:31:48.659Z,14.03
2023-03-30T13:34:22.125Z,11.75
2023-03-30T13:37:01.008Z,11.00
2023-03-30T13:39:42.422Z,17.88
2023-03-30T13:42:30.231Z,15.77
2023-03-30T13:45:24.783Z,15.50
2023-03-30T13:48:13.826Z,15.05
2023-03-30T13:50:49.947Z,17.63
2023-03-30T13:53:17.679Z,15.18
2023-03-30T13:55:48.928Z,11.88
2023-03-30T13:58:30.492Z,15.30
2023-03-30T14:01:01.754Z,12.18
2023-03-30T14:03:36.416Z,11.43
2023-03-30T14:06:26.454Z,10.77
2023-03-30T14:09:05.992Z,14.60
2023-03-30T14:11:53.671Z,17.30
2023-03-30T14:14:27.846Z,13.88
2023-03-30T14:16:56.794Z,12.30
2023-03-30T14:19:26.624Z,9.90
2023-03-30T14:22:09.554Z,11.60
2023-03-30T14:24:36.367Z,9.83
2023-03-30T14:27:07.275Z,11.70
2023-03-30T14:29:34.012Z,8.13
2023-03-30T14:34:33.464Z,13.18
2023-03-30T14:37:11.653Z,9.73
2023-03-30T14:39:47.678Z,8.77
2023-03-30T14:42:20.107Z,10.18
2023-03-30T14:44:49.944Z,12.13
2023-03-30T14:47:20.924Z,9.60
2023-03-30T14:49:49.479Z,11.63
2023-03-30T14:52:19.912Z,9.50
2023-03-30T14:55:02.519Z,14.65
2023-03-30T14:57:38.103Z,9.63
2023-03-30T15:00:16.452Z,9.82
2023-03-30T15:02:44.756Z,13.63
2023-03-30T15:05:11.822Z,12.23
2023-03-30T15:07:38.612Z,10.52
2023-03-30T15:10:05.657Z,13.25
2023-03-30T15:12:46.559Z,9.23
2023-03-30T15:15:15.375Z,16.07
2023-03-30T15:17:47.582Z,16.00
2023-03-30T15:20:14.620Z,11.05
2023-03-30T15:22:48.313Z,11.48
2023-03-30T15:25:18.510Z,6.07
2023-03-30T15:28:08.137Z,10.70
2023-03-30T15:30:44.557Z,9.60
2023-03-30T15:33:23.268Z,17.30
2023-03-30T15:35:52.854Z,10.90
2023-03-30T15:38:28.849Z,11.60
2023-03-30T15:40:55.342Z,14.50
2023-03-30T15:43:27.652Z,13.85
2023-03-30T15:46:01.715Z,11.68
2023-03-30T15:48:35.143Z,11.75
2023-03-30T15:51:28.703Z,12.30
2023-03-30T15:54:25.971Z,9.37
2023-03-30T15:56:56.607Z,10.85
2023-03-30T15:59:28.479Z,11.07
2023-03-30T16:01:57.687Z,11.27
2023-03-30T16:04:24.937Z,10.63
2023-03-30T16:06:52.657Z,9.17
2023-03-30T16:09:19.208Z,6.40
2023-03-30T16:11:46.558Z,9.60
2023-03-30T16:14:17.931Z,10.00
2023-03-30T16:16:44.705Z,13.05
2023-03-30T16:19:17.509Z,12.43
2023-03-30T16:21:45.430Z,9.88
2023-03-30T16:24:12.231Z,10.68
2023-03-30T16:26:38.582Z,7.97
2023-03-30T16:29:10.963Z,8.80
2023-03-30T16:31:37.409Z,7.30
2023-03-30T16:34:03.823Z,7.32
2023-03-30T16:36:30.372Z,9.38
2023-03-30T16:38:56.851Z,7.25
2023-03-30T16:41:23.358Z,9.75
2023-03-30T16:43:49.801Z,6.27
2023-03-30T16:46:18.228Z,10.00
2023-03-30T16:48:45.877Z,8.93
2023-03-30T16:51:13.506Z,8.20
2023-03-30T16:53:41.205Z,8.63
2023-03-30T16:56:17.261Z,7.20
2023-03-30T16:58:43.965Z,7.18
2023-03-30T17:01:13.192Z,11.27
2023-03-30T17:03:40.123Z,9.88
2023-03-30T17:06:07.740Z,10.23
2023-03-30T17:08:34.327Z,7.73
2023-03-30T17:11:04.877Z,6.00
2023-03-30T17:13:32.053Z,10.93
2023-03-30T17:16:01.077Z,9.93
2023-03-30T17:18:28.101Z,6.97
2023-03-30T17:20:56.790Z,10.57
2023-03-30T17:23:25.971Z,10.57
2023-03-30T17:25:54.123Z,9.32
2023-03-30T17:28:24.336Z,7.80
2023-03-30T17:30:53.037Z,9.98
2023-03-30T17:33:19.940Z,10.23
2023-03-30T17:35:49.797Z,10.20
2023-03-30T17:38:17.556Z,7.35
2023-03-30T17:40:44.767Z,12.65
2023-03-30T17:43:11.750Z,8.23
2023-03-30T17:45:39.388Z,9.20
2023-03-30T17:48:11.746Z,6.20
2023-03-30T17:50:43.463Z,6.50
2023-03-30T17:53:16.548Z,9.73
2023-03-30T17:55:47.563Z,9.00
2023-03-30T17:58:19.320Z,10.38
2023-03-30T18:00:47.116Z,9.23
2023-03-30T18:03:15.046Z,13.23
2023-03-30T18:05:42.057Z,6.65
2023-03-30T18:08:14.593Z,6.43
2023-03-30T18:10:41.183Z,8.52
2023-03-30T18:13:07.637Z,9.27
2023-03-30T18:15:34.216Z,12.57
2023-03-30T18:18:00.945Z,8.25
2023-03-30T18:20:32.162Z,9.68
2023-03-30T18:22:58.713Z,10.20
2023-03-30T18:25:31.987Z,8.57
2023-03-30T18:28:00.764Z,7.03
2023-03-30T18:30:40.450Z,10.63
2023-03-30T18:33:06.932Z,13.50
2023-03-30T18:35:36.039Z,10.13
2023-03-30T18:38:03.688Z,7.77
2023-03-30T18:40:38.856Z,9.60
2023-03-30T18:43:06.314Z,11.25
2023-03-30T18:45:35.264Z,13.40
2023-03-30T18:48:02.643Z,10.45
2023-03-30T18:50:38.366Z,9.23
2023-03-30T18:53:09.990Z,10.35
2023-03-30T18:55:38.261Z,13.20
2023-03-30T18:58:06.640Z,14.35
2023-03-30T19:00:34.664Z,5.88
2023-03-30T19:03:02.643Z,6.07
2023-03-30T19:05:31.396Z,9.63
2023-03-30T19:07:58.279Z,13.38
2023-03-30T19:10:27.903Z,10.88
2023-03-30T19:12:55.480Z,10.02
2023-03-30T19:15:24.006Z,9.83
2023-03-30T19:17:51.314Z,11.93
2023-03-30T19:20:19.683Z,4.68
2023-03-30T19:22:46.511Z,6.97
2023-03-30T19:25:14.835Z,13.23
2023-03-30T19:27:51.935Z,10.10
2023-03-30T19:30:28.539Z,11.13
2023-03-30T19:32:57.794Z,11.52
2023-03-30T19:35:25.062Z,9.05
2023-03-30T19:37:52.233Z,8.30
2023-03-30T19:40:20.168Z,10.33
2023-03-30T19:42:48.124Z,14.30
2023-03-30T19:45:17.230Z,10.20
2023-03-30T19:47:43.918Z,10.23
2023-03-30T19:50:17.791Z,9.90
2023-03-30T19:52:47.052Z,14.03
2023-03-30T19:55:13.596Z,8.98
2023-03-30T19:57:40.095Z,15.75
2023-03-30T20:00:12.468Z,11.93
2023-03-30T20:02:40.057Z,18.00
2023-03-30T20:05:09.999Z,11.77
2023-03-30T20:07:37.579Z,12.88
2023-03-30T20:10:08.578Z,11.57
2023-03-30T20:12:35.377Z,10.63
2023-03-30T20:15:03.942Z,10.32
2023-03-30T20:17:30.510Z,14.53
2023-03-30T20:20:06.418Z,9.85
2023-03-30T20:22:38.305Z,7.97
2023-03-30T20:25:07.431Z,10.70
2023-03-30T20:27:35.195Z,12.07
2023-03-30T20:30:03.387Z,8.17
2023-03-30T20:32:29.857Z,11.20
2023-03-30T20:34:56.383Z,12.68
2023-03-30T20:37:23.272Z,10.57
2023-03-30T20:39:50.558Z,12.00
2023-03-30T20:42:18.102Z,11.27
2023-03-30T20:44:50.245Z,7.72
2023-03-30T20:47:17.746Z,9.25
2023-03-30T20:49:46.510Z,13.23
2023-03-30T20:52:13.289Z,17.92
2023-03-30T20:54:41.142Z,9.57
2023-03-30T20:57:08.036Z,9.98
2023-03-30T20:59:34.494Z,15.13
2023-03-30T21:02:01.342Z,14.32
2023-03-30T21:04:28.043Z,12.68
2023-03-30T21:06:54.547Z,13.00
2023-03-30T21:09:20.917Z,11.27
2023-03-30T21:11:47.636Z,10.15
2023-03-30T21:14:14.181Z,9.30
2023-03-30T21:16:44.510Z,6.05
2023-03-30T21:19:11.589Z,7.33
2023-03-30T21:21:38.484Z,8.23
2023-03-30T21:24:06.291Z,13.75
2023-03-30T21:26:32.793Z,13.05
2023-03-30T21:28:59.192Z,9.90
2023-03-30T21:31:25.857Z,14.37
2023-03-30T21:33:52.823Z,6.82
2023-03-30T21:36:19.537Z,14.27
2023-03-30T21:38:46.523Z,14.60
2023-03-30T21:41:17.773Z,8.93
2023-03-30T21:43:47.510Z,7.97
2023-03-30T21:46:19.655Z,7.60
2023-03-30T21:48:46.986Z,7.43
2023-03-30T21:51:16.477Z,11.23
2023-03-30T21:53:45.385Z,10.77
2023-03-30T21:56:12.685Z,17.70
2023-03-30T21:58:39.509Z,12.55
2023-03-30T22:01:12.270Z,8.18
2023-03-30T22:03:46.130Z,7.85
2023-03-30T22:06:14.460Z,11.52
2023-03-30T22:08:41.068Z,14.63
2023-03-30T22:11:13.847Z,8.32
2023-03-30T22:13:40.970Z,11.75
2023-03-30T22:16:12.744Z,14.80
2023-03-30T22:18:40.438Z,10.75
2023-03-30T22:21:09.996Z,10.93
2023-03-30T22:23:36.383Z,8.50
2023-03-30T22:26:03.084Z,7.28
2023-03-30T22:28:29.645Z,10.48
2023-03-30T22:30:56.217Z,15.55
2023-03-30T22:33:22.632Z,13.50
2023-03-30T22:35:49.236Z,12.75
2023-03-30T22:38:16.508Z,13.52
2023-03-30T22:40:43.166Z,14.77
2023-03-30T22:43:13.559Z,8.95
2023-03-30T22:45:41.431Z,6.47
2023-03-30T22:48:07.893Z,12.18
2023-03-30T22:50:35.257Z,5.65
2023-03-30T22:53:01.861Z,13.82
2023-03-30T22:55:28.587Z,10.35
2023-03-30T22:57:56.991Z,13.77
2023-03-30T23:00:23.486Z,13.60
2023-03-30T23:02:50.745Z,10.07
2023-03-30T23:05:21.202Z,8.98
2023-03-30T23:07:49.325Z,8.10
2023-03-30T23:10:19.393Z,12.87
2023-03-30T23:12:46.530Z,11.30
2023-03-30T23:15:14.366Z,9.73
2023-03-30T23:17:41.260Z,19.13
2023-03-30T23:20:10.328Z,10.52
2023-03-30T23:22:38.284Z,10.83
2023-03-30T23:25:06.378Z,14.38
2023-03-30T23:27:33.738Z,8.90
2023-03-30T23:30:00.549Z,11.18
2023-03-30T23:32:27.322Z,9.07
2023-03-30T23:34:53.874Z,12.17
2023-03-30T23:37:21.929Z,10.75
2023-03-30T23:39:48.671Z,8.82
2023-03-30T23:42:15.359Z,11.25
2023-03-30T23:44:41.744Z,9.15
2023-03-30T23:47:08.173Z,9.50
2023-03-30T23:49:34.546Z,8.13
2023-03-30T23:52:01.431Z,13.70
2023-03-30T23:54:31.411Z,6.05
2023-03-30T23:56:57.974Z,9.00
2023-03-30T23:59:24.876Z,10.03
